createdAt,value
2018-10-21T00:01:14.652Z,13.14
2018-10-21T00:03:44.639Z,13.15
2018-10-21T00:06:14.723Z,13.14
2018-10-21T00:08:44.840Z,13.03
2018-10-21T00:11:15.240Z,13.04
2018-10-21T00:13:45.252Z,13.16
2018-10-21T00:16:15.234Z,12.91
2018-10-21T00:18:45.186Z,12.98
2018-10-21T00:21:15.261Z,12.89
2018-10-21T00:23:45.228Z,12.85
2018-10-21T00:26:15.161Z,13.04
2018-10-21T00:28:45.160Z,12.93
2018-10-21T00:31:15.142Z,12.97
2018-10-21T00:33:45.144Z,13.15
2018-10-21T00:36:15.238Z,13.10
2018-10-21T00:38:45.269Z,13.15
2018-10-21T00:41:15.209Z,13.09
2018-10-21T00:43:45.172Z,13.23
2018-10-21T00:46:15.133Z,13.30
2018-10-21T00:48:45.120Z,13.39
2018-10-21T00:51:15.153Z,13.22
2018-10-21T00:53:45.188Z,13.22
2018-10-21T00:56:15.116Z,13.18
2018-10-21T00:58:45.127Z,13.12
2018-10-21T01:01:15.152Z,13.13
2018-10-21T01:03:45.172Z,13.12
2018-10-21T01:06:15.103Z,13.02
2018-10-21T01:08:45.127Z,12.98
2018-10-21T01:11:15.145Z,12.96
2018-10-21T01:13:45.086Z,12.94
2018-10-21T01:16:15.043Z,12.90
2018-10-21T01:18:44.983Z,12.89
2018-10-21T01:21:15.089Z,13.00
2018-10-21T01:23:44.989Z,13.05
2018-10-21T01:26:14.965Z,13.01
2018-10-21T01:28:44.987Z,13.08
2018-10-21T01:31:14.981Z,13.07
2018-10-21T01:33:44.995Z,13.02
2018-10-21T01:36:15.048Z,13.00
2018-10-21T01:38:45.022Z,13.02
2018-10-21T01:41:14.982Z,13.00
2018-10-21T01:43:44.894Z,13.05
2018-10-21T01:46:14.874Z,13.05
2018-10-21T01:48:44.799Z,13.05
2018-10-21T01:51:14.892Z,13.03
2018-10-21T01:53:44.780Z,13.05
2018-10-21T01:56:14.776Z,13.05
2018-10-21T01:58:44.726Z,13.08
2018-10-21T02:01:14.828Z,13.08
2018-10-21T02:03:44.801Z,12.98
2018-10-21T02:06:14.837Z,13.08
2018-10-21T02:08:44.834Z,13.03
2018-10-21T02:11:14.824Z,13.00
2018-10-21T02:13:44.874Z,13.04
2018-10-21T02:16:14.824Z,13.07
2018-10-21T02:18:44.811Z,13.04
2018-10-21T02:21:14.817Z,12.97
2018-10-21T02:23:44.741Z,13.00
2018-10-21T02:26:14.718Z,12.91
2018-10-21T02:28:44.634Z,12.98
2018-10-21T02:31:14.603Z,12.98
2018-10-21T02:33:44.749Z,12.90
2018-10-21T02:36:14.715Z,12.99
2018-10-21T02:38:44.732Z,12.95
2018-10-21T02:41:50.351Z,12.88
2018-10-21T02:44:21.411Z,12.86
2018-10-21T02:46:53.434Z,12.76
2018-10-21T02:49:23.680Z,12.78
2018-10-21T02:51:58.679Z,12.72
2018-10-21T02:54:30.693Z,12.70
2018-10-21T02:57:00.668Z,12.71
2018-10-21T02:59:30.683Z,12.75
2018-10-21T03:02:00.698Z,12.68
2018-10-21T03:04:30.683Z,12.76
2018-10-21T03:07:00.664Z,12.74
2018-10-21T03:09:30.979Z,12.76
2018-10-21T03:12:01.182Z,12.75
2018-10-21T03:14:31.174Z,12.81
2018-10-21T03:17:01.146Z,12.77
2018-10-21T03:19:31.098Z,12.73
2018-10-21T03:22:01.007Z,12.68
2018-10-21T03:24:30.975Z,12.68
2018-10-21T03:27:00.971Z,12.72
2018-10-21T03:29:30.873Z,12.64
2018-10-21T03:32:00.878Z,12.62
2018-10-21T03:34:30.797Z,12.70
2018-10-21T03:37:00.822Z,12.58
2018-10-21T03:39:30.816Z,12.53
2018-10-21T03:42:00.835Z,12.51
2018-10-21T03:44:30.785Z,12.49
2018-10-21T03:47:00.830Z,12.49
2018-10-21T03:49:30.797Z,12.58
2018-10-21T03:52:00.805Z,12.45
2018-10-21T03:54:30.806Z,12.39
2018-10-21T03:57:00.743Z,12.42
2018-10-21T03:59:30.681Z,12.45
2018-10-21T04:02:00.648Z,12.44
2018-10-21T04:04:30.590Z,12.47
2018-10-21T04:07:00.637Z,12.49
2018-10-21T04:09:30.639Z,12.53
2018-10-21T04:12:00.627Z,12.53
2018-10-21T04:14:30.607Z,12.55
2018-10-21T04:17:00.544Z,12.53
2018-10-21T04:19:30.539Z,12.49
2018-10-21T04:22:00.489Z,12.51
2018-10-21T04:24:30.421Z,12.54
2018-10-21T04:27:06.999Z,12.44
2018-10-21T04:29:36.996Z,12.37
2018-10-21T04:32:06.984Z,12.31
2018-10-21T04:34:37.006Z,12.28
2018-10-21T04:37:23.523Z,12.29
2018-10-21T04:40:24.522Z,12.40
2018-10-21T04:42:54.464Z,12.35
2018-10-21T04:45:31.141Z,12.31
2018-10-21T04:48:01.106Z,12.22
2018-10-21T04:50:31.180Z,12.20
2018-10-21T04:53:01.105Z,12.23
2018-10-21T04:55:31.047Z,12.20
2018-10-21T04:58:01.043Z,12.19
2018-10-21T05:00:30.976Z,12.19
2018-10-21T05:03:00.935Z,12.26
2018-10-21T05:05:30.924Z,12.29
2018-10-21T05:08:01.013Z,12.32
2018-10-21T05:10:32.606Z,12.31
2018-10-21T05:13:02.957Z,12.32
2018-10-21T05:15:34.141Z,12.27
2018-10-21T05:18:04.130Z,12.27
2018-10-21T05:20:34.041Z,12.27
2018-10-21T05:23:04.039Z,12.22
2018-10-21T05:25:33.985Z,12.15
2018-10-21T05:28:04.055Z,12.10
2018-10-21T05:30:34.502Z,12.06
2018-10-21T05:33:04.441Z,12.08
2018-10-21T05:35:34.418Z,12.09
2018-10-21T05:38:04.341Z,12.12
2018-10-21T05:40:34.364Z,12.16
2018-10-21T05:43:04.306Z,12.21
2018-10-21T05:45:34.263Z,12.26
2018-10-21T05:48:04.256Z,12.23
2018-10-21T05:50:34.199Z,12.22
2018-10-21T05:53:04.195Z,12.21
2018-10-21T05:55:34.127Z,12.19
2018-10-21T05:58:04.197Z,12.18
2018-10-21T06:00:34.135Z,12.22
2018-10-21T06:03:04.198Z,12.22
2018-10-21T06:05:40.272Z,12.21
2018-10-21T06:08:10.674Z,12.16
2018-10-21T06:10:41.020Z,12.08
2018-10-21T06:13:11.296Z,12.03
2018-10-21T06:15:41.394Z,12.03
2018-10-21T06:18:18.178Z,12.09
2018-10-21T06:20:51.548Z,12.01
2018-10-21T06:23:21.540Z,11.96
2018-10-21T06:25:51.493Z,11.95
2018-10-21T06:28:21.484Z,12.04
2018-10-21T06:30:51.550Z,12.09
2018-10-21T06:33:21.547Z,12.19
2018-10-21T06:35:51.514Z,12.06
2018-10-21T06:38:21.567Z,12.07
2018-10-21T06:40:51.563Z,12.14
2018-10-21T06:43:21.561Z,12.13
2018-10-21T06:45:51.499Z,12.14
2018-10-21T06:48:21.494Z,12.25
2018-10-21T06:50:51.449Z,12.24
2018-10-21T06:53:21.459Z,12.20
2018-10-21T06:55:51.455Z,12.25
2018-10-21T06:58:21.395Z,12.32
2018-10-21T07:00:51.356Z,12.27
2018-10-21T07:03:21.355Z,12.27
2018-10-21T07:06:24.419Z,12.27
2018-10-21T07:08:55.600Z,12.26
2018-10-21T07:11:25.670Z,12.32
2018-10-21T07:13:55.606Z,12.41
2018-10-21T07:16:25.793Z,12.46
2018-10-21T07:18:55.680Z,12.54
2018-10-21T07:21:25.678Z,12.53
2018-10-21T07:23:55.673Z,12.70
2018-10-21T07:26:25.666Z,12.58
2018-10-21T07:28:55.594Z,12.66
2018-10-21T07:31:25.563Z,12.72
2018-10-21T07:33:55.580Z,12.73
2018-10-21T07:36:25.645Z,12.64
2018-10-21T07:38:55.636Z,12.49
2018-10-21T07:41:25.660Z,12.23
2018-10-21T07:43:55.758Z,12.20
2018-10-21T07:46:25.845Z,12.26
2018-10-21T07:48:55.839Z,12.41
2018-10-21T07:51:25.863Z,12.70
2018-10-21T07:53:56.137Z,12.91
2018-10-21T07:56:26.527Z,13.13
2018-10-21T07:58:59.670Z,13.38
2018-10-21T08:01:29.759Z,13.48
2018-10-21T08:03:59.677Z,13.65
2018-10-21T08:06:46.204Z,13.86
2018-10-21T08:09:16.276Z,13.96
2018-10-21T08:11:46.191Z,14.13
2018-10-21T08:14:16.183Z,14.32
2018-10-21T08:16:46.146Z,14.48
2018-10-21T08:19:16.171Z,14.75
2018-10-21T08:21:46.110Z,14.84
2018-10-21T08:24:16.060Z,14.85
2018-10-21T08:26:45.999Z,15.00
2018-10-21T08:29:15.950Z,14.96
2018-10-21T08:31:46.618Z,14.85
2018-10-21T08:34:17.073Z,14.95
2018-10-21T08:36:47.229Z,14.89
2018-10-21T08:39:17.490Z,14.99
2018-10-21T08:41:48.112Z,14.98
2018-10-21T08:44:18.103Z,14.80
2018-10-21T08:46:48.122Z,14.72
2018-10-21T08:49:18.204Z,14.66
2018-10-21T08:51:48.091Z,14.46
2018-10-21T08:54:18.091Z,14.57
2018-10-21T08:56:48.117Z,14.43
2018-10-21T08:59:18.111Z,14.42
2018-10-21T09:01:48.052Z,14.45
2018-10-21T09:04:18.255Z,14.45
2018-10-21T09:06:48.124Z,14.34
2018-10-21T09:09:18.110Z,14.49
2018-10-21T09:11:48.049Z,14.61
2018-10-21T09:14:18.127Z,14.59
2018-10-21T09:16:48.200Z,14.72
2018-10-21T09:19:18.105Z,14.82
2018-10-21T09:21:48.101Z,14.94
2018-10-21T09:24:18.420Z,14.91
2018-10-21T09:26:48.446Z,14.91
2018-10-21T09:29:18.365Z,14.89
2018-10-21T09:31:48.347Z,14.81
2018-10-21T09:34:18.344Z,14.70
2018-10-21T09:36:48.331Z,14.77
2018-10-21T09:39:18.244Z,14.79
2018-10-21T09:41:48.233Z,14.90
2018-10-21T09:44:18.165Z,15.10
2018-10-21T09:46:48.163Z,15.16
2018-10-21T09:49:18.265Z,15.15
2018-10-21T09:51:48.328Z,15.19
2018-10-21T09:54:18.280Z,15.22
2018-10-21T09:56:48.198Z,15.42
2018-10-21T09:59:18.216Z,15.44
2018-10-21T10:01:53.374Z,15.40
2018-10-21T10:04:23.429Z,15.47
2018-10-21T10:06:53.480Z,15.25
2018-10-21T10:09:24.567Z,15.18
2018-10-21T10:11:54.494Z,15.27
2018-10-21T10:14:24.423Z,15.38
2018-10-21T10:16:54.519Z,15.55
2018-10-21T10:19:24.342Z,15.82
2018-10-21T10:21:54.326Z,16.06
2018-10-21T10:24:24.266Z,15.86
2018-10-21T10:26:54.209Z,15.86
2018-10-21T10:29:24.264Z,15.80
2018-10-21T10:31:54.322Z,15.82
2018-10-21T10:34:24.312Z,15.95
2018-10-21T10:36:54.280Z,15.92
2018-10-21T10:39:24.244Z,16.08
2018-10-21T10:41:54.299Z,16.15
2018-10-21T10:44:24.300Z,16.30
2018-10-21T10:46:54.193Z,16.62
2018-10-21T10:49:24.168Z,17.40
2018-10-21T10:51:54.131Z,18.12
2018-10-21T10:54:24.139Z,18.81
2018-10-21T10:56:54.090Z,19.12
2018-10-21T10:59:24.103Z,19.14
2018-10-21T11:01:54.094Z,18.96
2018-10-21T11:04:24.106Z,19.40
2018-10-21T11:06:54.148Z,20.29
2018-10-21T11:09:24.190Z,24.65
2018-10-21T11:11:54.156Z,28.76
2018-10-21T11:14:24.143Z,28.32
2018-10-21T11:16:54.228Z,27.72
2018-10-21T11:19:26.122Z,27.41
2018-10-21T11:21:56.089Z,27.58
2018-10-21T11:24:26.035Z,28.49
2018-10-21T11:26:56.021Z,27.90
2018-10-21T11:29:25.996Z,26.01
2018-10-21T11:31:56.001Z,23.84
2018-10-21T11:34:25.951Z,22.15
2018-10-21T11:36:55.925Z,20.19
2018-10-21T11:39:25.913Z,19.77
2018-10-21T11:41:55.844Z,19.58
2018-10-21T11:44:25.909Z,19.17
2018-10-21T11:46:56.116Z,18.56
2018-10-21T11:49:26.088Z,18.47
2018-10-21T11:51:56.191Z,18.18
2018-10-21T11:54:26.255Z,17.46
2018-10-21T11:56:56.187Z,17.39
2018-10-21T11:59:26.160Z,17.44
2018-10-21T12:01:56.256Z,17.27
2018-10-21T12:04:26.256Z,17.65
2018-10-21T12:06:56.260Z,17.56
2018-10-21T12:09:26.246Z,18.08
2018-10-21T12:11:56.625Z,18.78
2018-10-21T12:14:26.613Z,18.56
2018-10-21T12:16:56.559Z,18.19
2018-10-21T12:19:26.522Z,17.62
2018-10-21T12:21:56.470Z,17.37
2018-10-21T12:24:26.583Z,17.47
2018-10-21T12:26:56.559Z,18.70
2018-10-21T12:29:26.619Z,22.24
2018-10-21T12:31:56.576Z,26.29
2018-10-21T12:34:26.525Z,29.04
2018-10-21T12:36:56.478Z,27.31
2018-10-21T12:39:26.438Z,24.22
2018-10-21T12:41:56.429Z,22.12
2018-10-21T12:44:26.388Z,20.52
2018-10-21T12:46:56.470Z,19.32
2018-10-21T12:49:26.393Z,21.77
2018-10-21T12:51:56.425Z,22.88
2018-10-21T12:54:26.400Z,21.62
2018-10-21T12:56:56.364Z,20.06
2018-10-21T12:59:26.308Z,19.13
2018-10-21T13:01:56.303Z,18.56
2018-10-21T13:04:26.329Z,18.28
2018-10-21T13:06:56.327Z,17.89
2018-10-21T13:09:26.369Z,17.56
2018-10-21T13:11:56.349Z,17.56
2018-10-21T13:14:26.313Z,17.39
2018-10-21T13:16:56.327Z,19.16
2018-10-21T13:19:26.263Z,22.32
2018-10-21T13:21:56.600Z,25.40
2018-10-21T13:24:26.894Z,26.38
2018-10-21T13:26:57.066Z,28.00
2018-10-21T13:29:27.314Z,27.68
2018-10-21T13:31:57.804Z,29.40
2018-10-21T13:34:28.314Z,30.43
2018-10-21T13:36:58.769Z,29.94
2018-10-21T13:39:29.048Z,28.22
2018-10-21T13:41:59.568Z,26.02
2018-10-21T13:44:29.996Z,23.86
2018-10-21T13:47:00.323Z,22.01
2018-10-21T13:49:30.688Z,20.60
2018-10-21T13:52:01.123Z,19.81
2018-10-21T13:54:31.274Z,19.36
2018-10-21T13:57:01.591Z,18.83
2018-10-21T13:59:32.214Z,18.64
2018-10-21T14:02:02.643Z,18.44
2018-10-21T14:04:32.974Z,18.33
2018-10-21T14:07:03.514Z,18.40
2018-10-21T14:09:33.923Z,19.72
2018-10-21T14:12:04.345Z,19.47
2018-10-21T14:14:34.832Z,18.86
2018-10-21T14:17:05.135Z,18.23
2018-10-21T14:19:35.416Z,17.34
2018-10-21T14:22:06.147Z,17.05
2018-10-21T14:24:36.513Z,16.59
2018-10-21T14:27:07.114Z,16.32
2018-10-21T14:29:37.382Z,16.38
2018-10-21T14:32:07.976Z,17.47
2018-10-21T14:34:38.399Z,17.75
2018-10-21T14:37:08.897Z,17.48
2018-10-21T14:39:39.363Z,16.99
2018-10-21T14:42:09.648Z,16.59
2018-10-21T14:44:40.062Z,16.32
2018-10-21T14:47:10.444Z,16.09
2018-10-21T14:49:40.368Z,15.83
2018-10-21T14:52:10.330Z,15.55
2018-10-21T14:54:40.820Z,15.44
2018-10-21T14:57:11.374Z,15.38
2018-10-21T14:59:41.678Z,15.23
2018-10-21T15:02:11.715Z,15.23
2018-10-21T15:04:41.906Z,15.15
2018-10-21T15:07:12.311Z,15.13
2018-10-21T15:09:42.862Z,15.02
2018-10-21T15:12:13.394Z,14.93
2018-10-21T15:14:43.641Z,14.98
2018-10-21T15:17:14.068Z,14.91
2018-10-21T15:19:44.489Z,14.75
2018-10-21T15:22:15.140Z,14.73
2018-10-21T15:24:45.574Z,14.68
2018-10-21T15:27:16.036Z,14.51
2018-10-21T15:29:46.375Z,14.41
2018-10-21T15:32:16.857Z,14.37
2018-10-21T15:34:47.333Z,14.43
2018-10-21T15:37:17.217Z,14.33
2018-10-21T15:39:47.212Z,14.23
2018-10-21T15:42:17.700Z,14.25
2018-10-21T15:44:48.148Z,14.18
2018-10-21T15:47:18.880Z,14.17
2018-10-21T15:49:49.093Z,14.07
2018-10-21T15:52:19.543Z,14.01
2018-10-21T15:54:50.022Z,13.78
2018-10-21T15:57:20.463Z,13.62
2018-10-21T15:59:51.037Z,13.57
2018-10-21T16:02:21.702Z,13.62
2018-10-21T16:04:52.318Z,13.48
2018-10-21T16:07:22.688Z,13.38
2018-10-21T16:09:53.322Z,13.31
2018-10-21T16:12:23.934Z,13.13
2018-10-21T16:14:54.405Z,13.08
2018-10-21T16:17:25.040Z,13.03
2018-10-21T16:19:55.036Z,13.04
2018-10-21T16:22:25.079Z,12.87
2018-10-21T16:24:55.111Z,12.75
2018-10-21T16:27:25.597Z,12.60
2018-10-21T16:29:56.201Z,12.55
2018-10-21T16:32:26.685Z,12.49
2018-10-21T16:34:57.120Z,12.37
2018-10-21T16:37:27.155Z,12.32
2018-10-21T16:39:57.065Z,12.22
2018-10-21T16:42:27.067Z,12.15
2018-10-21T16:44:58.006Z,12.14
2018-10-21T16:47:27.963Z,12.11
2018-10-21T16:49:57.878Z,12.06
2018-10-21T16:52:27.918Z,11.95
2018-10-21T16:54:58.023Z,11.82
2018-10-21T16:57:31.380Z,11.77
2018-10-21T17:00:01.399Z,11.67
2018-10-21T17:02:31.422Z,11.63
2018-10-21T17:05:01.959Z,11.56
2018-10-21T17:07:32.013Z,11.48
2018-10-21T17:10:02.912Z,11.46
2018-10-21T17:12:35.781Z,11.44
2018-10-21T17:15:06.518Z,11.41
2018-10-21T17:17:37.394Z,11.35
2018-10-21T17:20:11.836Z,11.28
2018-10-21T17:22:42.876Z,11.29
2018-10-21T17:25:13.449Z,11.29
2018-10-21T17:27:43.952Z,11.27
2018-10-21T17:30:16.209Z,11.24
2018-10-21T17:32:46.967Z,11.17
2018-10-21T17:35:18.223Z,11.14
2018-10-21T17:37:48.797Z,11.14
2018-10-21T17:40:19.194Z,11.15
2018-10-21T17:42:49.652Z,11.08
2018-10-21T17:45:19.665Z,10.98
2018-10-21T17:47:49.659Z,11.01
2018-10-21T17:50:20.128Z,10.92
2018-10-21T17:52:50.676Z,11.04
2018-10-21T17:55:21.173Z,10.86
2018-10-21T17:57:53.073Z,10.80
2018-10-21T18:00:24.630Z,10.92
2018-10-21T18:02:54.986Z,10.74
2018-10-21T18:05:25.294Z,10.64
2018-10-21T18:07:55.652Z,10.52
2018-10-21T18:10:26.631Z,10.41
2018-10-21T18:12:58.824Z,10.38
2018-10-21T18:15:30.168Z,10.42
2018-10-21T18:18:00.868Z,10.35
2018-10-21T18:20:31.563Z,10.26
2018-10-21T18:23:05.060Z,10.23
2018-10-21T18:25:35.627Z,10.17
2018-10-21T18:28:07.286Z,10.07
2018-10-21T18:30:38.993Z,10.03
2018-10-21T18:33:10.124Z,10.02
2018-10-21T18:35:40.415Z,10.01
2018-10-21T18:38:17.465Z,10.01
2018-10-21T18:40:48.047Z,9.94
2018-10-21T18:43:18.609Z,9.87
2018-10-21T18:45:48.909Z,9.98
2018-10-21T18:48:19.632Z,9.98
2018-10-21T18:50:50.207Z,10.04
2018-10-21T18:53:20.646Z,9.86
2018-10-21T18:55:51.110Z,9.79
2018-10-21T18:58:21.623Z,9.91
2018-10-21T19:00:52.300Z,9.80
2018-10-21T19:03:22.773Z,9.86
2018-10-21T19:05:53.218Z,9.72
2018-10-21T19:08:23.491Z,9.67
2018-10-21T19:10:54.017Z,9.61
2018-10-21T19:13:24.536Z,9.59
2018-10-21T19:15:54.974Z,9.57
2018-10-21T19:18:25.326Z,9.53
2018-10-21T19:20:55.960Z,9.49
2018-10-21T19:23:26.247Z,9.53
2018-10-21T19:25:56.662Z,9.48
2018-10-21T19:28:27.039Z,9.53
2018-10-21T19:30:57.532Z,9.46
2018-10-21T19:33:28.033Z,9.39
2018-10-21T19:35:58.526Z,9.34
2018-10-21T19:38:29.020Z,9.31
2018-10-21T19:40:59.608Z,9.23
2018-10-21T19:43:30.305Z,9.23
2018-10-21T19:46:00.794Z,9.24
2018-10-21T19:48:30.935Z,9.28
2018-10-21T19:51:00.899Z,9.32
2018-10-21T19:53:30.969Z,9.34
2018-10-21T19:56:00.925Z,9.43
2018-10-21T19:58:30.933Z,9.49
2018-10-21T20:01:00.895Z,9.52
2018-10-21T20:03:30.887Z,9.69
2018-10-21T20:06:00.833Z,9.71
2018-10-21T20:08:30.883Z,9.70
2018-10-21T20:11:00.985Z,9.73
2018-10-21T20:13:30.991Z,9.74
2018-10-21T20:16:01.062Z,9.70
2018-10-21T20:18:31.096Z,9.69
2018-10-21T20:21:01.054Z,9.64
2018-10-21T20:23:31.003Z,9.59
2018-10-21T20:26:01.045Z,9.62
2018-10-21T20:28:31.008Z,9.65
2018-10-21T20:31:01.123Z,9.68
2018-10-21T20:33:31.004Z,9.65
2018-10-21T20:36:00.962Z,9.67
2018-10-21T20:38:31.023Z,9.62
2018-10-21T20:41:01.059Z,9.65
2018-10-21T20:43:31.119Z,9.64
2018-10-21T20:46:01.053Z,9.68
2018-10-21T20:48:31.043Z,9.75
2018-10-21T20:51:01.019Z,9.83
2018-10-21T20:53:30.987Z,9.75
2018-10-21T20:56:00.997Z,9.83
2018-10-21T20:58:31.009Z,10.02
2018-10-21T21:01:01.033Z,9.90
2018-10-21T21:03:30.979Z,9.79
2018-10-21T21:06:01.099Z,9.76
2018-10-21T21:08:31.034Z,9.79
2018-10-21T21:11:01.156Z,9.82
2018-10-21T21:13:31.092Z,9.69
2018-10-21T21:16:01.052Z,9.56
2018-10-21T21:18:31.057Z,9.57
2018-10-21T21:21:01.049Z,9.61
2018-10-21T21:23:31.107Z,9.51
2018-10-21T21:26:01.134Z,9.60
2018-10-21T21:28:31.279Z,9.68
2018-10-21T21:31:01.296Z,9.53
2018-10-21T21:33:31.212Z,9.54
2018-10-21T21:36:01.150Z,9.44
2018-10-21T21:38:31.097Z,9.42
2018-10-21T21:41:01.043Z,9.38
2018-10-21T21:43:30.988Z,9.34
2018-10-21T21:46:00.980Z,9.39
2018-10-21T21:48:31.269Z,9.34
2018-10-21T21:51:01.228Z,9.34
2018-10-21T21:53:31.188Z,9.47
2018-10-21T21:56:01.140Z,9.39
2018-10-21T21:58:31.140Z,9.42
2018-10-21T22:01:01.029Z,9.52
2018-10-21T22:03:30.986Z,9.43
2018-10-21T22:06:00.996Z,9.58
2018-10-21T22:08:30.967Z,9.44
2018-10-21T22:11:00.991Z,9.65
2018-10-21T22:13:31.004Z,9.53
2018-10-21T22:16:00.969Z,9.42
2018-10-21T22:18:30.883Z,9.31
2018-10-21T22:21:00.942Z,9.21
2018-10-21T22:23:31.151Z,9.17
2018-10-21T22:26:01.136Z,9.29
2018-10-21T22:28:31.167Z,9.36
2018-10-21T22:31:01.156Z,9.32
2018-10-21T22:33:31.104Z,9.30
2018-10-21T22:36:01.081Z,9.30
2018-10-21T22:38:31.022Z,9.24
2018-10-21T22:41:01.004Z,9.24
2018-10-21T22:43:30.951Z,9.29
2018-10-21T22:46:00.928Z,9.31
2018-10-21T22:48:30.909Z,9.32
2018-10-21T22:51:00.823Z,9.33
2018-10-21T22:53:37.370Z,9.39
2018-10-21T22:56:07.333Z,9.45
2018-10-21T22:58:37.382Z,9.43
2018-10-21T23:01:08.188Z,9.50
2018-10-21T23:03:38.182Z,9.46
2018-10-21T23:06:08.182Z,9.46
2018-10-21T23:08:38.081Z,9.46
2018-10-21T23:11:08.118Z,9.44
2018-10-21T23:13:38.132Z,9.52
2018-10-21T23:16:08.556Z,9.60
2018-10-21T23:18:38.528Z,9.56
2018-10-21T23:21:08.518Z,9.53
2018-10-21T23:23:38.474Z,9.52
2018-10-21T23:26:08.448Z,9.52
2018-10-21T23:28:38.373Z,9.56
2018-10-21T23:31:08.456Z,9.50
2018-10-21T23:33:38.362Z,9.49
2018-10-21T23:36:08.299Z,9.47
2018-10-21T23:38:38.300Z,9.63
2018-10-21T23:41:08.232Z,9.54
2018-10-21T23:43:38.217Z,9.50
2018-10-21T23:46:08.186Z,9.49
2018-10-21T23:48:38.097Z,9.47
2018-10-21T23:51:08.649Z,9.44
2018-10-21T23:53:38.859Z,9.48
2018-10-21T23:56:09.167Z,9.46
2018-10-21T23:58:39.569Z,9.46
